Time;durP1;ratioP1;P1;durP2;ratioP2;P2;SDS_P1;SDS_P2;PMS_P1;PMS_P2;Temp;Humidity;BMP_temperature;BMP_pressure;BME280_temperature;BME280_humidity;BME280_pressure;Samples;Min_cycle;Max_cycle;Signal;HPM_P1;HPM_P2
2021/01/08 05:00:35;;;;;;;7.27;6.03;;;2.30;99.90;;;;;;5885187;23;20847;-64
2021/01/08 05:03:01;;;;;;;5.87;5.27;;;2.40;99.90;;;;;;4976087;28;20567;-63
2021/01/08 05:05:27;;;;;;;7.43;6.13;;;2.40;99.90;;;;;;4975990;28;20817;-63
2021/01/08 05:07:53;;;;;;;7.07;6.37;;;2.40;99.90;;;;;;4975954;28;20459;-65
2021/01/08 05:10:20;;;;;;;7.07;5.80;;;2.40;99.90;;;;;;4975832;28;20493;-65
2021/01/08 05:12:48;;;;;;;6.70;6.10;;;2.50;99.90;;;;;;4975576;28;20461;-65
2021/01/08 05:15:15;;;;;;;6.77;6.07;;;2.50;99.90;;;;;;4975703;28;20802;-67
2021/01/08 05:17:44;;;;;;;7.67;6.60;;;2.60;99.90;;;;;;4975834;28;20455;-64
2021/01/08 05:20:11;;;;;;;6.90;6.10;;;2.60;99.90;;;;;;4975966;28;20459;-64
2021/01/08 05:22:39;;;;;;;7.60;6.70;;;2.60;99.90;;;;;;4975806;28;20466;-65
2021/01/08 05:25:06;;;;;;;7.50;6.70;;;2.70;99.90;;;;;;4975717;28;20458;-64
2021/01/08 05:27:32;;;;;;;7.10;6.10;;;2.60;99.90;;;;;;4976129;28;20458;-63
2021/01/08 05:30:16;;;;;;;6.33;5.70;;;2.60;99.90;;;;;;4976852;28;20458;-64
2021/01/08 05:32:43;;;;;;;10.57;7.93;;;2.60;99.90;;;;;;4978469;28;20467;-63
2021/01/08 05:35:13;;;;;;;24.00;16.70;;;2.60;99.90;;;;;;4978136;28;20481;-64
2021/01/08 05:37:42;;;;;;;16.27;12.73;;;2.60;99.90;;;;;;4978317;28;20470;-63
2021/01/08 05:40:10;;;;;;;17.60;13.83;;;2.60;99.90;;;;;;4976092;28;20458;-64
2021/01/08 05:42:58;;;;;;;37.63;23.17;;;2.60;99.90;;;;;;4975485;28;20455;-65
2021/01/08 05:45:25;;;;;;;37.03;21.43;;;2.70;99.90;;;;;;4975763;28;20438;-63
2021/01/08 05:47:53;;;;;;;17.03;11.53;;;2.70;99.90;;;;;;4976804;28;20462;-64
2021/01/08 05:50:21;;;;;;;15.70;11.80;;;2.60;99.90;;;;;;4977186;28;20446;-65
2021/01/08 05:52:54;;;;;;;19.00;13.23;;;2.60;99.90;;;;;;4977170;28;20483;-64
2021/01/08 05:55:20;;;;;;;11.87;9.43;;;2.60;99.90;;;;;;4976820;28;20477;-63
2021/01/08 05:57:50;;;;;;;8.97;7.60;;;2.60;99.90;;;;;;4976936;28;20490;-65
2021/01/08 06:00:17;;;;;;;7.97;6.40;;;2.50;99.90;;;;;;4976066;28;20451;-64
2021/01/08 06:02:43;;;;;;;7.83;6.47;;;2.50;99.90;;;;;;4975319;28;20449;-67
2021/01/08 06:05:12;;;;;;;7.83;6.40;;;2.50;99.90;;;;;;4975088;28;20941;-63
2021/01/08 06:07:38;;;;;;;9.10;7.00;;;2.50;99.90;;;;;;4974656;28;20986;-65
2021/01/08 06:10:06;;;;;;;10.73;7.07;;;2.50;99.90;;;;;;4975217;28;20493;-63
2021/01/08 06:12:39;;;;;;;8.00;6.30;;;2.50;99.90;;;;;;4975014;28;20812;-63
2021/01/08 06:15:08;;;;;;;8.03;5.93;;;2.50;99.90;;;;;;4974668;28;20458;-63
2021/01/08 06:17:37;;;;;;;5.63;5.13;;;2.40;99.90;;;;;;4974384;28;20461;-64
2021/01/08 06:20:06;;;;;;;7.27;6.03;;;2.40;99.90;;;;;;4974747;28;20481;-64
2021/01/08 06:22:37;;;;;;;7.17;6.23;;;2.40;99.90;;;;;;4974746;28;20498;-64
2021/01/08 06:25:05;;;;;;;9.27;6.10;;;2.20;99.90;;;;;;4975426;28;20459;-64
2021/01/08 06:27:33;;;;;;;7.70;6.37;;;2.20;99.90;;;;;;4974677;28;20461;-64
2021/01/08 06:30:00;;;;;;;7.20;5.90;;;2.30;99.90;;;;;;4974633;28;20481;-64
2021/01/08 06:32:29;;;;;;;10.07;6.83;;;2.20;99.90;;;;;;4974555;28;20549;-64
2021/01/08 06:35:05;;;;;;;8.60;7.33;;;2.20;99.90;;;;;;4974253;28;20987;-65
2021/01/08 06:37:38;;;;;;;8.27;6.40;;;2.20;99.90;;;;;;4974566;28;20560;-65
2021/01/08 06:40:06;;;;;;;7.60;6.80;;;2.20;99.90;;;;;;4974275;28;20861;-64
2021/01/08 06:42:39;;;;;;;6.67;5.80;;;2.30;99.90;;;;;;4974082;28;20483;-64
2021/01/08 06:45:11;;;;;;;6.80;6.00;;;2.30;99.90;;;;;;4974412;28;20849;-64
2021/01/08 06:47:43;;;;;;;6.53;5.90;;;2.30;99.90;;;;;;4972940;28;20509;-64
2021/01/08 06:50:15;;;;;;;8.10;6.77;;;2.30;99.90;;;;;;4974486;28;20443;-64
2021/01/08 06:52:44;;;;;;;6.53;5.90;;;2.40;99.90;;;;;;4974450;28;20450;-64
2021/01/08 06:55:14;;;;;;;6.80;6.10;;;2.30;99.90;;;;;;4974190;28;20489;-65
2021/01/08 06:57:48;;;;;;;6.60;5.57;;;2.10;99.90;;;;;;4974527;28;20431;-64
2021/01/08 07:00:20;;;;;;;7.30;6.30;;;2.20;99.90;;;;;;4974301;28;20443;-64
2021/01/08 07:02:49;;;;;;;8.03;6.17;;;2.20;99.90;;;;;;4974428;28;20435;-63
2021/01/08 07:05:18;;;;;;;8.30;6.13;;;2.20;99.90;;;;;;4974488;28;20459;-63
2021/01/08 07:07:47;;;;;;;9.10;6.03;;;2.30;99.90;;;;;;4974276;28;21010;-64
2021/01/08 07:10:16;;;;;;;6.50;5.83;;;2.20;99.90;;;;;;4974649;28;20458;-63
2021/01/08 07:12:43;;;;;;;6.50;5.83;;;2.30;99.90;;;;;;4975340;28;20442;-63
2021/01/08 07:15:10;;;;;;;5.70;5.20;;;2.20;99.90;;;;;;4977952;28;21073;-63
2021/01/08 07:17:39;;;;;;;6.83;6.03;;;2.30;99.90;;;;;;4977711;28;20474;-63
2021/01/08 07:20:08;;;;;;;7.93;5.77;;;2.30;99.90;;;;;;4978498;28;20558;-63
2021/01/08 07:22:38;;;;;;;7.00;6.30;;;2.30;99.90;;;;;;4977946;28;20606;-63
2021/01/08 07:25:07;;;;;;;5.93;5.27;;;2.30;99.90;;;;;;4978260;28;20439;-63
2021/01/08 07:27:35;;;;;;;11.83;6.40;;;2.40;99.90;;;;;;4977798;28;20454;-63
2021/01/08 07:30:04;;;;;;;6.20;5.43;;;2.40;99.90;;;;;;4977646;28;20961;-64
2021/01/08 07:32:34;;;;;;;6.70;5.40;;;2.40;99.90;;;;;;4977868;28;20481;-64
2021/01/08 07:35:14;;;;;;;6.13;5.27;;;2.40;99.90;;;;;;4977970;28;20458;-64
2021/01/08 07:38:06;;;;;;;5.93;5.27;;;2.40;99.90;;;;;;4978053;28;20458;-64
2021/01/08 07:40:34;;;;;;;6.37;5.20;;;3.50;99.90;;;;;;4977894;28;20505;-64
2021/01/08 07:43:02;;;;;;;5.93;5.30;;;4.10;99.90;;;;;;4977246;28;20910;-64
2021/01/08 07:45:47;;;;;;;5.47;4.87;;;4.00;99.90;;;;;;4977598;28;20454;-64
2021/01/08 07:48:20;;;;;;;5.50;5.00;;;3.90;99.90;;;;;;4977529;28;20846;-64
2021/01/08 07:50:58;;;;;;;5.73;5.23;;;3.80;99.90;;;;;;4977251;28;20478;-62
2021/01/08 07:53:47;;;;;;;6.47;5.00;;;3.70;99.90;;;;;;4977461;28;20438;-64
2021/01/08 07:56:16;;;;;;;5.90;5.40;;;3.40;99.90;;;;;;4977624;28;20462;-64
2021/01/08 07:58:43;;;;;;;5.90;5.30;;;3.30;99.90;;;;;;4977565;28;20466;-65
2021/01/08 08:01:11;;;;;;;5.73;5.13;;;3.20;99.90;;;;;;4976980;28;21001;-64
2021/01/08 08:03:38;;;;;;;4.73;4.33;;;3.10;99.90;;;;;;4977241;28;20461;-64
2021/01/08 08:06:06;;;;;;;5.40;4.90;;;2.90;99.90;;;;;;4977193;28;20446;-63
2021/01/08 08:08:33;;;;;;;8.63;5.80;;;2.80;99.90;;;;;;4977173;28;20454;-63
2021/01/08 08:11:14;;;;;;;6.03;5.40;;;2.90;99.90;;;;;;4977497;28;21024;-64
2021/01/08 08:13:40;;;;;;;5.60;4.73;;;2.90;99.90;;;;;;4977889;28;21029;-63
2021/01/08 08:16:07;;;;;;;4.90;4.33;;;2.90;99.90;;;;;;4976798;28;20979;-63
2021/01/08 08:18:34;;;;;;;5.00;4.50;;;2.90;99.90;;;;;;4976814;28;20462;-64
2021/01/08 08:21:08;;;;;;;5.40;4.90;;;2.90;99.90;;;;;;4976810;28;20486;-64
2021/01/08 08:23:34;;;;;;;4.53;4.13;;;2.90;99.90;;;;;;4976492;28;20450;-63
2021/01/08 08:26:00;;;;;;;4.30;3.90;;;3.50;99.90;;;;;;4976650;28;20455;-64
2021/01/08 08:28:27;;;;;;;4.90;4.50;;;4.40;99.90;;;;;;4976683;28;20470;-63
2021/01/08 08:30:53;;;;;;;5.00;4.60;;;4.90;99.90;;;;;;4976219;28;20478;-64
2021/01/08 08:33:21;;;;;;;4.93;4.50;;;5.00;99.90;;;;;;4976623;28;20513;-64
2021/01/08 08:35:47;;;;;;;5.07;4.60;;;4.80;99.90;;;;;;4976446;28;20562;-64
2021/01/08 08:38:14;;;;;;;4.53;4.17;;;4.80;99.90;;;;;;4976280;28;20466;-63
2021/01/08 08:40:40;;;;;;;5.03;3.73;;;4.50;99.90;;;;;;4976692;28;20483;-64
2021/01/08 08:43:06;;;;;;;5.00;4.53;;;4.30;99.90;;;;;;4976286;28;20949;-64
2021/01/08 08:45:35;;;;;;;5.17;4.67;;;4.00;99.90;;;;;;4976179;28;20933;-64
2021/01/08 08:48:04;;;;;;;4.77;4.33;;;3.70;99.90;;;;;;4976494;28;20577;-64
2021/01/08 08:50:32;;;;;;;5.10;4.60;;;3.60;99.90;;;;;;4976839;28;20482;-63
2021/01/08 08:52:58;;;;;;;4.47;4.07;;;3.50;99.90;;;;;;4976701;28;20502;-65
2021/01/08 08:55:26;;;;;;;5.03;4.53;;;3.30;99.90;;;;;;4976469;28;20524;-64
2021/01/08 08:58:03;;;;;;;5.20;4.70;;;3.30;99.90;;;;;;4976358;28;20451;-64
2021/01/08 09:00:30;;;;;;;4.53;4.17;;;3.20;99.90;;;;;;4976174;28;20454;-64
2021/01/08 09:02:57;;;;;;;4.33;3.93;;;3.20;99.90;;;;;;4976365;28;20450;-63
2021/01/08 09:05:30;;;;;;;4.87;3.73;;;3.20;99.90;;;;;;4976168;28;20443;-64
2021/01/08 09:08:07;;;;;;;5.70;4.23;;;3.30;99.90;;;;;;4976145;28;20462;-63
2021/01/08 09:10:35;;;;;;;3.90;3.60;;;3.20;99.90;;;;;;4976830;28;20502;-64
2021/01/08 09:13:10;;;;;;;5.40;4.90;;;3.10;99.90;;;;;;4976041;28;20450;-64
2021/01/08 09:15:45;;;;;;;5.33;4.83;;;2.90;99.90;;;;;;4975899;28;20438;-63
2021/01/08 09:18:24;;;;;;;4.90;4.47;;;2.90;99.90;;;;;;4975898;28;20800;-64
2021/01/08 09:20:59;;;;;;;6.00;4.17;;;3.00;99.90;;;;;;4976005;28;21010;-63
2021/01/08 09:23:28;;;;;;;6.70;5.50;;;3.10;99.90;;;;;;4975831;28;20438;-63
2021/01/08 09:25:55;;;;;;;5.33;4.77;;;3.20;99.90;;;;;;4975803;28;20453;-64
2021/01/08 09:28:21;;;;;;;5.07;4.63;;;3.60;99.90;;;;;;4975505;28;20451;-63
2021/01/08 09:30:50;;;;;;;5.43;4.37;;;3.80;99.90;;;;;;4975606;28;20538;-63
2021/01/08 09:33:18;;;;;;;5.10;4.60;;;4.10;99.90;;;;;;4976116;28;20454;-64
2021/01/08 09:35:45;;;;;;;4.70;4.30;;;4.40;99.90;;;;;;4975096;28;20979;-62
2021/01/08 09:38:13;;;;;;;4.33;3.77;;;4.80;99.90;;;;;;4975559;28;20477;-63
2021/01/08 09:40:40;;;;;;;6.10;3.97;;;4.80;99.90;;;;;;4975463;28;20474;-64
2021/01/08 09:43:15;;;;;;;4.60;4.30;;;4.80;99.90;;;;;;4975349;28;20509;-65
2021/01/08 09:45:42;;;;;;;4.27;3.87;;;5.30;99.90;;;;;;4975941;28;20442;-64
2021/01/08 09:48:21;;;;;;;4.60;4.20;;;5.50;99.90;;;;;;4977803;28;20459;-64
2021/01/08 09:50:58;;;;;;;3.97;3.67;;;5.90;99.90;;;;;;4976438;28;20838;-64
2021/01/08 09:53:25;;;;;;;6.47;5.00;;;6.20;99.90;;;;;;4975193;28;20443;-62
2021/01/08 09:55:51;;;;;;;5.10;4.70;;;6.30;99.90;;;;;;4976472;28;20486;-63
2021/01/08 09:58:17;;;;;;;4.87;4.47;;;6.00;99.90;;;;;;4975051;28;20466;-63
2021/01/08 10:00:49;;;;;;;4.90;4.50;;;6.20;99.90;;;;;;4974924;28;20490;-62
2021/01/08 10:03:20;;;;;;;4.73;4.40;;;6.40;99.90;;;;;;4975338;28;20478;-63
2021/01/08 10:05:47;;;;;;;4.90;4.50;;;6.40;99.90;;;;;;4975211;28;20446;-65
2021/01/08 10:08:22;;;;;;;4.67;4.27;;;6.40;99.90;;;;;;4974867;28;20459;-63
2021/01/08 10:10:48;;;;;;;4.63;4.20;;;6.30;99.90;;;;;;4974765;28;20509;-64
2021/01/08 10:13:16;;;;;;;7.53;4.57;;;6.30;99.90;;;;;;4975346;28;20866;-64
2021/01/08 10:15:46;;;;;;;7.20;4.50;;;6.20;99.90;;;;;;4983914;28;20459;-64
2021/01/08 10:18:14;;;;;;;4.97;4.57;;;6.20;99.90;;;;;;4983750;28;20546;-64
2021/01/08 10:20:46;;;;;;;5.60;4.40;;;6.00;99.90;;;;;;4982742;28;20474;-64
2021/01/08 10:23:15;;;;;;;5.73;5.30;;;5.90;99.90;;;;;;4979183;28;20458;-67
2021/01/08 10:25:41;;;;;;;5.63;5.20;;;5.90;99.90;;;;;;4975417;28;20922;-68
2021/01/08 10:28:26;;;;;;;5.47;4.97;;;5.80;99.90;;;;;;4975303;28;20454;-65
2021/01/08 10:30:53;;;;;;;5.97;4.83;;;5.70;99.90;;;;;;4975292;28;20481;-64
2021/01/08 10:33:21;;;;;;;5.80;5.30;;;5.70;99.90;;;;;;4975086;28;20450;-63
2021/01/08 10:35:49;;;;;;;5.57;5.10;;;5.60;99.90;;;;;;4974803;28;20457;-63
2021/01/08 10:38:16;;;;;;;6.83;6.13;;;5.70;99.90;;;;;;4975206;28;20462;-65
2021/01/08 10:40:43;;;;;;;7.60;6.90;;;5.60;99.90;;;;;;4975023;28;20517;-66
2021/01/08 10:43:09;;;;;;;6.70;6.10;;;5.50;99.90;;;;;;4975740;28;20483;-64
2021/01/08 10:45:35;;;;;;;7.57;6.87;;;5.50;99.90;;;;;;4974728;28;20975;-64
2021/01/08 10:48:02;;;;;;;6.90;6.30;;;5.40;99.90;;;;;;4976504;28;20458;-64
2021/01/08 10:50:28;;;;;;;8.00;7.30;;;5.10;99.90;;;;;;4978861;28;20482;-64
2021/01/08 10:52:54;;;;;;;8.73;7.90;;;4.90;99.90;;;;;;4979199;28;20469;-64
2021/01/08 10:55:21;;;;;;;9.23;8.00;;;4.90;99.90;;;;;;4978714;28;20971;-64
2021/01/08 10:57:47;;;;;;;9.40;7.77;;;4.70;99.90;;;;;;4978990;28;20505;-64
2021/01/08 11:00:17;;;;;;;7.73;6.93;;;4.60;99.90;;;;;;4978712;28;20454;-63
2021/01/08 11:02:43;;;;;;;8.63;7.53;;;4.50;99.90;;;;;;4978692;28;20530;-65
2021/01/08 11:05:10;;;;;;;10.40;7.90;;;4.40;99.90;;;;;;4978705;28;20458;-64
2021/01/08 11:07:37;;;;;;;8.73;7.63;;;4.20;99.90;;;;;;4979048;28;20443;-63
2021/01/08 11:10:05;;;;;;;9.10;8.20;;;4.10;99.90;;;;;;4978728;28;20511;-65
2021/01/08 11:12:33;;;;;;;9.87;7.90;;;4.00;99.90;;;;;;4978470;28;20485;-65
2021/01/08 11:15:00;;;;;;;11.10;7.60;;;4.00;99.90;;;;;;4978369;28;20945;-64
2021/01/08 11:17:26;;;;;;;8.93;7.03;;;3.80;99.90;;;;;;4978513;28;20475;-65
2021/01/08 11:19:53;;;;;;;8.23;7.43;;;3.70;99.90;;;;;;4978287;28;20945;-63
2021/01/08 11:22:19;;;;;;;7.43;6.70;;;3.70;99.90;;;;;;4978416;28;20567;-64
2021/01/08 11:24:45;;;;;;;7.37;6.57;;;3.60;99.90;;;;;;4978638;28;20461;-65
2021/01/08 11:27:11;;;;;;;8.97;7.30;;;3.60;99.90;;;;;;4978233;28;20461;-65
2021/01/08 11:29:38;;;;;;;12.30;8.00;;;3.60;99.90;;;;;;4978408;28;20455;-65
2021/01/08 11:32:06;;;;;;;9.60;8.20;;;3.50;99.90;;;;;;4978316;28;20481;-63
2021/01/08 11:34:33;;;;;;;9.20;7.40;;;3.50;99.90;;;;;;4978346;28;20450;-66
2021/01/08 11:36:59;;;;;;;8.67;7.73;;;3.30;99.90;;;;;;4979839;28;20960;-64
2021/01/08 11:39:25;;;;;;;8.87;7.97;;;3.30;99.90;;;;;;4982098;28;20513;-64
2021/01/08 11:41:55;;;;;;;10.80;8.40;;;3.30;99.90;;;;;;4981385;28;20829;-64
2021/01/08 11:44:22;;;;;;;9.03;8.13;;;3.30;99.90;;;;;;4983875;28;20450;-64
2021/01/08 11:46:50;;;;;;;10.40;8.37;;;3.30;99.90;;;;;;4983841;28;20457;-65
2021/01/08 11:49:17;;;;;;;12.53;8.63;;;3.30;99.90;;;;;;4979685;28;20458;-65
2021/01/08 11:51:44;;;;;;;11.60;8.40;;;3.30;99.90;;;;;;4978465;28;20481;-64
2021/01/08 11:54:10;;;;;;;9.47;7.27;;;3.30;99.90;;;;;;4978050;28;20877;-63
2021/01/08 11:56:37;;;;;;;10.23;8.23;;;3.20;99.90;;;;;;4977955;28;20485;-65
2021/01/08 11:59:04;;;;;;;8.30;7.07;;;3.10;99.90;;;;;;4977542;28;20494;-65
2021/01/08 12:01:31;;;;;;;11.10;7.60;;;3.10;99.90;;;;;;4977704;28;20919;-63
2021/01/08 12:04:00;;;;;;;8.57;7.47;;;3.20;99.90;;;;;;4978515;28;20463;-63
2021/01/08 12:06:28;;;;;;;10.37;7.43;;;3.20;99.90;;;;;;4978066;28;20484;-63
2021/01/08 12:08:55;;;;;;;12.00;7.43;;;3.20;99.90;;;;;;4977743;28;20443;-63
2021/01/08 12:11:21;;;;;;;9.47;7.40;;;3.10;99.90;;;;;;4977937;28;20486;-63
2021/01/08 12:13:47;;;;;;;10.33;7.80;;;3.10;99.90;;;;;;4977612;28;20493;-64
2021/01/08 12:16:14;;;;;;;10.27;9.20;;;3.10;99.90;;;;;;4977382;28;20485;-63
2021/01/08 12:18:40;;;;;;;7.90;7.10;;;3.20;99.90;;;;;;4977229;28;20885;-63
2021/01/08 12:21:07;;;;;;;10.93;7.97;;;3.20;99.90;;;;;;4976962;28;20474;-65
2021/01/08 12:23:34;;;;;;;12.00;8.23;;;3.10;99.90;;;;;;4977212;28;20485;-64
2021/01/08 12:26:00;;;;;;;7.93;6.47;;;3.10;99.90;;;;;;4976982;28;20450;-63
2021/01/08 12:28:26;;;;;;;8.20;6.27;;;3.10;99.90;;;;;;4977050;28;20458;-64
2021/01/08 12:30:52;;;;;;;10.27;7.83;;;3.10;99.90;;;;;;4976856;28;20509;-64
2021/01/08 12:33:19;;;;;;;7.50;6.47;;;3.10;99.90;;;;;;4977005;28;20825;-64
2021/01/08 12:35:45;;;;;;;7.33;6.53;;;3.10;99.90;;;;;;4976891;28;20461;-64
2021/01/08 12:38:12;;;;;;;8.63;7.50;;;3.10;99.90;;;;;;4976633;28;20486;-64
2021/01/08 12:40:38;;;;;;;7.13;6.43;;;3.10;99.90;;;;;;4976702;28;20474;-64
2021/01/08 12:43:04;;;;;;;8.47;6.77;;;3.20;99.90;;;;;;4976860;28;20510;-64
2021/01/08 12:45:30;;;;;;;7.17;6.17;;;3.30;99.90;;;;;;4976691;28;20466;-62
2021/01/08 12:47:56;;;;;;;6.60;5.73;;;3.40;99.90;;;;;;4976373;28;20828;-65
2021/01/08 12:50:23;;;;;;;7.63;5.53;;;3.40;99.90;;;;;;4976523;28;20455;-64
2021/01/08 12:52:49;;;;;;;6.97;6.00;;;3.30;99.90;;;;;;4976788;28;20510;-65
2021/01/08 12:55:16;;;;;;;6.90;6.20;;;3.40;99.90;;;;;;4976711;28;20450;-65
2021/01/08 12:57:42;;;;;;;8.33;6.87;;;3.50;99.90;;;;;;4976414;28;20856;-65
2021/01/08 13:00:09;;;;;;;9.10;6.87;;;3.60;99.90;;;;;;4976478;28;20465;-65
2021/01/08 13:02:36;;;;;;;7.40;6.20;;;3.70;99.90;;;;;;4975977;28;20514;-64
2021/01/08 13:05:02;;;;;;;7.10;6.40;;;3.70;99.90;;;;;;4975960;28;20977;-65
2021/01/08 13:07:28;;;;;;;8.60;7.37;;;3.80;99.90;;;;;;4976436;28;20783;-65
2021/01/08 13:09:54;;;;;;;6.33;5.73;;;3.80;99.90;;;;;;4975802;28;20465;-65
2021/01/08 13:12:21;;;;;;;7.77;6.00;;;3.80;99.90;;;;;;4975579;28;20487;-65
2021/01/08 13:14:47;;;;;;;7.17;6.57;;;3.70;99.90;;;;;;4975412;28;20942;-65
2021/01/08 13:17:14;;;;;;;6.87;6.17;;;3.60;99.90;;;;;;4975812;28;20479;-64
2021/01/08 13:19:40;;;;;;;7.17;6.47;;;3.50;99.90;;;;;;4976148;28;20454;-65
2021/01/08 13:22:07;;;;;;;6.93;6.00;;;3.60;99.90;;;;;;4976120;28;20482;-65
2021/01/08 13:24:33;;;;;;;6.90;6.30;;;3.60;99.90;;;;;;4976753;28;20447;-64
2021/01/08 13:27:00;;;;;;;11.37;7.23;;;3.60;99.90;;;;;;4977096;28;20573;-64
2021/01/08 13:29:27;;;;;;;11.67;7.40;;;3.60;99.90;;;;;;4976874;28;20454;-64
2021/01/08 13:31:53;;;;;;;9.90;7.37;;;3.60;99.90;;;;;;4976032;28;20981;-65
2021/01/08 13:34:19;;;;;;;7.83;7.03;;;3.60;99.90;;;;;;4976463;28;20454;-65
2021/01/08 13:36:45;;;;;;;8.03;6.17;;;3.60;99.90;;;;;;4975444;28;20985;-65
2021/01/08 13:39:12;;;;;;;9.07;6.73;;;3.50;99.90;;;;;;4976297;28;20455;-65
2021/01/08 13:41:39;;;;;;;9.93;8.13;;;3.40;99.90;;;;;;4977646;28;20525;-64
2021/01/08 13:44:06;;;;;;;7.80;7.00;;;3.50;99.90;;;;;;4977193;28;20514;-64
2021/01/08 13:46:33;;;;;;;9.00;6.67;;;3.40;99.90;;;;;;4976384;28;20447;-64
2021/01/08 13:48:59;;;;;;;8.20;7.40;;;3.40;99.90;;;;;;4976355;28;20945;-63
2021/01/08 13:51:28;;;;;;;8.80;7.07;;;3.40;99.90;;;;;;4976844;28;20480;-63
2021/01/08 13:53:55;;;;;;;9.20;6.27;;;3.40;99.90;;;;;;4976725;28;20477;-63
2021/01/08 13:56:25;;;;;;;8.73;6.90;;;3.40;99.90;;;;;;4975683;28;20463;-63
2021/01/08 13:58:52;;;;;;;9.30;7.80;;;3.30;99.90;;;;;;4975409;28;20684;-62
2021/01/08 14:01:18;;;;;;;9.00;8.07;;;3.30;99.90;;;;;;4975351;28;20479;-62
2021/01/08 14:03:46;;;;;;;11.53;8.00;;;3.30;99.90;;;;;;4975333;28;20462;-62
2021/01/08 14:06:18;;;;;;;10.57;8.87;;;3.30;99.90;;;;;;4975399;28;20459;-62
2021/01/08 14:08:45;;;;;;;11.17;8.83;;;3.30;99.90;;;;;;4979821;28;20471;-62
2021/01/08 14:11:11;;;;;;;11.97;9.40;;;3.30;99.90;;;;;;4978107;28;20478;-63
2021/01/08 14:13:37;;;;;;;9.40;8.40;;;3.20;99.90;;;;;;4976512;28;20446;-63
2021/01/08 14:16:04;;;;;;;11.40;7.53;;;3.30;99.90;;;;;;4976782;28;20529;-62
2021/01/08 14:18:30;;;;;;;9.00;7.43;;;3.30;99.90;;;;;;4980052;28;20463;-62
2021/01/08 14:20:57;;;;;;;11.43;7.77;;;3.30;99.90;;;;;;4982244;28;20474;-62
2021/01/08 14:23:23;;;;;;;7.23;6.53;;;3.40;99.90;;;;;;4979892;28;20455;-63
2021/01/08 14:25:49;;;;;;;8.37;7.47;;;3.40;99.90;;;;;;4974901;28;20945;-62
2021/01/08 14:28:16;;;;;;;10.03;7.80;;;3.30;99.90;;;;;;4975367;28;20447;-62
2021/01/08 14:30:44;;;;;;;10.00;7.33;;;3.40;99.90;;;;;;4975076;28;20494;-62
2021/01/08 14:33:10;;;;;;;8.27;6.50;;;3.30;99.90;;;;;;4975648;28;20459;-62
2021/01/08 14:35:36;;;;;;;10.50;8.03;;;3.30;99.90;;;;;;4975302;28;20454;-61
2021/01/08 14:38:03;;;;;;;7.87;6.43;;;3.30;99.90;;;;;;4975479;28;20482;-65
2021/01/08 14:40:30;;;;;;;7.70;6.90;;;3.10;99.90;;;;;;4975709;28;20459;-62
2021/01/08 14:42:56;;;;;;;9.47;8.33;;;3.10;99.90;;;;;;4975007;28;20485;-62
2021/01/08 14:45:22;;;;;;;11.37;7.90;;;3.10;99.90;;;;;;4976239;28;20462;-63
2021/01/08 14:47:48;;;;;;;8.90;7.97;;;3.10;99.90;;;;;;4975196;28;20525;-63
2021/01/08 14:50:15;;;;;;;10.23;7.80;;;3.00;99.90;;;;;;4974906;28;21012;-62
2021/01/08 14:52:41;;;;;;;11.00;8.60;;;3.00;99.90;;;;;;4974644;28;20462;-63
2021/01/08 14:55:09;;;;;;;12.23;9.80;;;3.10;99.90;;;;;;4974920;28;20458;-62
2021/01/08 14:57:35;;;;;;;12.60;8.40;;;3.10;99.90;;;;;;4974530;28;20501;-63
2021/01/08 15:00:01;;;;;;;8.17;7.37;;;3.10;99.90;;;;;;4974422;28;20455;-63
2021/01/08 15:02:28;;;;;;;13.23;10.00;;;3.10;99.90;;;;;;4974450;28;20486;-63
2021/01/08 15:04:54;;;;;;;10.27;8.50;;;3.10;99.90;;;;;;4974513;28;20462;-63
2021/01/08 15:07:20;;;;;;;8.83;7.93;;;3.20;99.90;;;;;;4974701;28;20454;-63
2021/01/08 15:09:46;;;;;;;10.27;7.80;;;3.10;99.90;;;;;;4974556;28;20458;-63
2021/01/08 15:12:13;;;;;;;9.00;6.93;;;3.10;99.90;;;;;;4974416;28;20533;-63
2021/01/08 15:14:39;;;;;;;12.00;8.70;;;3.10;99.90;;;;;;4974435;28;20458;-63
2021/01/08 15:17:05;;;;;;;11.83;9.70;;;3.00;99.90;;;;;;4974499;28;20483;-62
2021/01/08 15:19:32;;;;;;;10.47;7.87;;;3.10;99.90;;;;;;4974475;28;20435;-63
2021/01/08 15:21:58;;;;;;;10.47;8.53;;;3.00;99.90;;;;;;4974143;28;20997;-63
2021/01/08 15:24:24;;;;;;;9.93;7.80;;;3.00;99.90;;;;;;4974403;28;20459;-62
2021/01/08 15:26:51;;;;;;;10.87;9.10;;;3.00;99.90;;;;;;4974616;28;20443;-61
2021/01/08 15:29:18;;;;;;;10.33;8.10;;;3.00;99.90;;;;;;4974586;28;20454;-64
2021/01/08 15:31:44;;;;;;;9.63;8.57;;;3.00;99.90;;;;;;4973985;28;20479;-63
2021/01/08 15:34:10;;;;;;;12.27;8.40;;;2.90;99.90;;;;;;4975778;28;20477;-63
2021/01/08 15:36:36;;;;;;;10.97;8.10;;;2.90;99.90;;;;;;4977865;28;20537;-63
2021/01/08 15:39:03;;;;;;;14.63;8.63;;;2.80;99.90;;;;;;4977862;28;20459;-63
2021/01/08 15:41:29;;;;;;;13.33;9.63;;;2.60;99.90;;;;;;4977676;28;20478;-63
2021/01/08 15:43:55;;;;;;;12.07;8.80;;;2.60;99.90;;;;;;4978237;28;20462;-63
2021/01/08 15:46:22;;;;;;;12.43;8.17;;;2.60;99.90;;;;;;4977525;28;21016;-63
2021/01/08 15:48:49;;;;;;;11.57;8.90;;;2.60;99.90;;;;;;4977321;28;20955;-62
2021/01/08 15:51:16;;;;;;;11.40;9.33;;;2.60;99.90;;;;;;4977359;28;20474;-63
2021/01/08 15:53:42;;;;;;;12.27;8.67;;;2.60;99.90;;;;;;4977579;28;20458;-63
2021/01/08 15:56:08;;;;;;;11.37;9.10;;;2.70;99.90;;;;;;4977363;28;20463;-63
2021/01/08 15:58:35;;;;;;;11.50;8.60;;;2.70;99.90;;;;;;4977362;28;20459;-63
2021/01/08 16:01:01;;;;;;;12.37;9.40;;;2.70;99.90;;;;;;4977062;28;20487;-63
2021/01/08 16:03:28;;;;;;;12.77;10.53;;;2.80;99.90;;;;;;4977582;28;20465;-63
2021/01/08 16:05:56;;;;;;;12.17;9.43;;;2.70;99.90;;;;;;4977002;28;20884;-63
2021/01/08 16:08:22;;;;;;;11.47;8.53;;;2.70;99.90;;;;;;4977013;28;20447;-63
2021/01/08 16:10:50;;;;;;;13.23;10.13;;;2.80;99.90;;;;;;4976815;28;21105;-63
2021/01/08 16:13:16;;;;;;;12.10;9.50;;;3.00;99.90;;;;;;4977140;28;20459;-63
2021/01/08 16:15:45;;;;;;;12.57;9.90;;;3.00;99.90;;;;;;4976633;28;20869;-63
2021/01/08 16:18:11;;;;;;;14.50;10.37;;;2.90;99.90;;;;;;4976694;28;20485;-63
2021/01/08 16:20:39;;;;;;;11.77;9.47;;;2.90;99.90;;;;;;4976451;28;20474;-63
2021/01/08 16:23:05;;;;;;;10.80;8.57;;;2.90;99.90;;;;;;4976940;28;20455;-63
2021/01/08 16:25:31;;;;;;;12.03;9.57;;;2.80;99.90;;;;;;4976897;28;20458;-63
2021/01/08 16:27:58;;;;;;;10.70;9.37;;;2.80;99.90;;;;;;4977019;28;20454;-63
2021/01/08 16:30:24;;;;;;;12.50;10.30;;;2.80;99.90;;;;;;4976988;28;20462;-63
2021/01/08 16:32:50;;;;;;;12.97;9.47;;;2.80;99.90;;;;;;4976829;28;20458;-63
2021/01/08 16:35:18;;;;;;;14.07;10.60;;;2.80;99.90;;;;;;4976778;28;20459;-64
2021/01/08 16:37:45;;;;;;;19.43;13.17;;;2.70;99.90;;;;;;4977156;28;20529;-63
2021/01/08 16:40:13;;;;;;;13.47;10.70;;;2.80;99.90;;;;;;4976523;28;20459;-63
2021/01/08 16:42:40;;;;;;;14.13;10.30;;;2.70;99.90;;;;;;4976417;28;20552;-63
2021/01/08 16:45:08;;;;;;;11.03;9.23;;;2.70;99.90;;;;;;4975918;28;20545;-64
2021/01/08 16:47:35;;;;;;;10.63;9.03;;;2.70;99.90;;;;;;4976567;28;20457;-65
2021/01/08 16:50:01;;;;;;;12.90;10.40;;;2.70;99.90;;;;;;4976750;28;20479;-65
2021/01/08 16:52:27;;;;;;;15.00;10.53;;;2.80;99.90;;;;;;4976513;28;20475;-65
2021/01/08 16:54:54;;;;;;;14.33;10.80;;;2.70;99.90;;;;;;4976567;28;20461;-65
2021/01/08 16:57:21;;;;;;;11.50;8.93;;;2.80;99.90;;;;;;4976562;28;20837;-65
2021/01/08 16:59:47;;;;;;;12.70;10.30;;;2.80;99.90;;;;;;4976572;28;20450;-65
2021/01/08 17:02:13;;;;;;;13.60;9.80;;;2.80;99.90;;;;;;4976000;28;20561;-65
2021/01/08 17:04:39;;;;;;;9.80;8.40;;;2.80;99.90;;;;;;4976359;28;20455;-64
2021/01/08 17:07:06;;;;;;;12.10;9.73;;;2.80;99.90;;;;;;4976299;28;20462;-64
2021/01/08 17:09:32;;;;;;;11.50;9.00;;;2.80;99.90;;;;;;4976668;28;20457;-64
2021/01/08 17:11:59;;;;;;;14.93;9.13;;;2.80;99.90;;;;;;4976311;28;20475;-64
2021/01/08 17:14:26;;;;;;;14.13;10.63;;;2.80;99.90;;;;;;4975845;28;20996;-65
2021/01/08 17:16:52;;;;;;;12.20;10.37;;;2.80;99.90;;;;;;4976269;28;20510;-64
2021/01/08 17:19:19;;;;;;;12.93;9.50;;;2.80;99.90;;;;;;4976120;28;20513;-64
2021/01/08 17:21:49;;;;;;;12.17;9.83;;;2.80;99.90;;;;;;4975875;28;20475;-63
2021/01/08 17:24:16;;;;;;;12.83;9.93;;;2.80;99.90;;;;;;4975851;28;20933;-64
2021/01/08 17:26:43;;;;;;;11.67;10.17;;;2.90;99.90;;;;;;4975898;28;20529;-64
2021/01/08 17:29:12;;;;;;;14.73;10.63;;;2.90;99.90;;;;;;4976052;28;20459;-63
2021/01/08 17:31:38;;;;;;;11.07;9.93;;;2.80;99.90;;;;;;4976293;28;20479;-63
2021/01/08 17:34:05;;;;;;;11.57;9.47;;;2.90;99.90;;;;;;4975832;28;20459;-64
2021/01/08 17:36:31;;;;;;;12.70;10.13;;;2.90;99.90;;;;;;4975603;28;20458;-63
2021/01/08 17:38:58;;;;;;;12.83;10.30;;;2.80;99.90;;;;;;4975943;28;20456;-63
2021/01/08 17:41:24;;;;;;;16.33;10.43;;;2.80;99.90;;;;;;4975617;28;20477;-64
2021/01/08 17:43:50;;;;;;;14.30;10.90;;;2.60;99.90;;;;;;4975796;28;20451;-64
2021/01/08 17:46:24;;;;;;;14.63;10.57;;;2.60;99.90;;;;;;4975637;28;20458;-64
2021/01/08 17:48:50;;;;;;;13.87;10.10;;;2.60;99.90;;;;;;4975960;28;20830;-63
2021/01/08 17:51:16;;;;;;;11.93;8.80;;;2.60;99.90;;;;;;4976744;28;20467;-63
2021/01/08 17:53:42;;;;;;;13.30;10.00;;;2.60;99.90;;;;;;4978315;28;20477;-65
2021/01/08 17:56:08;;;;;;;13.60;9.40;;;2.70;99.90;;;;;;4977464;28;20972;-65